Time;durP1;ratioP1;P1;durP2;ratioP2;P2;SDS_P1;SDS_P2;PMS_P1;PMS_P2;Temp;Humidity;BMP_temperature;BMP_pressure;BME280_temperature;BME280_humidity;BME280_pressure;Samples;Min_cycle;Max_cycle;Signal;HPM_P1;HPM_P2
2022/06/21 00:00:13;;;;;;;13.73;6.68;;;;;;;12.17;80.88;101647.13;4905825;29;20031;-76
2022/06/21 00:02:41;;;;;;;13.05;7.15;;;;;;;12.17;80.86;101647.13;4914713;29;20487;-76
2022/06/21 00:05:14;;;;;;;13.18;7.63;;;;;;;12.15;81.66;101646.41;4906845;29;20115;-76
2022/06/21 00:07:40;;;;;;;12.27;7.53;;;;;;;12.17;80.60;101641.00;4900844;29;20021;-76
2022/06/21 00:10:10;;;;;;;11.15;7.30;;;;;;;12.16;80.67;101652.53;4911416;29;20044;-76
2022/06/21 00:12:35;;;;;;;19.38;7.78;;;;;;;12.10;80.82;101651.16;4911051;29;20146;-77
2022/06/21 00:15:01;;;;;;;12.52;7.55;;;;;;;12.07;80.94;101645.22;4913753;29;20094;-77
2022/06/21 00:17:30;;;;;;;14.15;8.07;;;;;;;12.04;81.03;101656.84;4913287;29;20391;-77
2022/06/21 00:19:59;;;;;;;14.48;7.72;;;;;;;12.06;80.96;101654.09;4896751;29;20031;-77
2022/06/21 00:22:24;;;;;;;11.93;7.35;;;;;;;12.04;81.20;101656.84;4909164;29;20040;-77
2022/06/21 00:24:51;;;;;;;12.60;7.40;;;;;;;12.03;81.65;101654.31;4907526;29;20043;-77
2022/06/21 00:27:20;;;;;;;12.13;7.82;;;;;;;11.96;81.98;101663.53;4899264;29;20091;-77
2022/06/21 00:29:46;;;;;;;14.43;7.30;;;;;;;11.88;81.56;101654.34;4898959;29;20454;-77
2022/06/21 00:32:15;;;;;;;14.25;7.47;;;;;;;11.83;82.47;101652.97;4907451;29;20095;-78
2022/06/21 00:34:41;;;;;;;14.25;7.40;;;;;;;11.75;82.12;101634.16;4906860;29;20027;-77
2022/06/21 00:37:20;;;;;;;10.90;7.43;;;;;;;11.80;82.25;101643.47;4914493;29;20080;-77
2022/06/21 00:39:51;;;;;;;12.55;6.75;;;;;;;11.80;81.73;101642.63;4914145;29;20028;-77
2022/06/21 00:42:22;;;;;;;14.02;7.63;;;;;;;11.78;81.59;101648.00;4915862;29;20083;-78
2022/06/21 00:45:01;;;;;;;10.88;7.60;;;;;;;11.74;81.84;101653.56;4908755;29;20517;-77
2022/06/21 00:47:57;;;;;;;12.93;7.22;;;;;;;11.81;80.91;101642.53;4913415;29;20027;-78
2022/06/21 00:50:31;;;;;;;12.27;7.38;;;;;;;11.69;81.66;101653.88;4889830;29;20894;-78
2022/06/21 00:53:06;;;;;;;11.35;7.97;;;;;;;11.68;81.62;101636.34;4910200;29;20040;-77
2022/06/21 00:55:56;;;;;;;12.77;7.65;;;;;;;11.69;81.24;101640.69;4893147;29;20099;-77
2022/06/21 00:58:25;;;;;;;11.82;7.32;;;;;;;11.60;81.72;101641.25;4912483;29;20039;-77
2022/06/21 01:01:13;;;;;;;13.98;7.63;;;;;;;11.61;81.39;101638.56;4893331;29;20032;-77
2022/06/21 01:04:04;;;;;;;19.63;8.35;;;;;;;11.59;82.04;101624.59;4899216;29;20028;-77
2022/06/21 01:06:41;;;;;;;14.93;8.32;;;;;;;11.55;83.69;101607.31;4903098;29;20036;-77
2022/06/21 01:09:16;;;;;;;16.10;8.63;;;;;;;11.51;83.64;101608.44;4902714;29;20054;-76
2022/06/21 01:11:48;;;;;;;17.85;9.10;;;;;;;11.45;84.56;101606.22;4907236;29;20040;-76
2022/06/21 01:14:17;;;;;;;16.33;8.38;;;;;;;11.44;84.36;101595.78;4907111;29;20505;-76
2022/06/21 01:16:43;;;;;;;14.00;8.38;;;;;;;11.46;84.40;101593.91;4913154;29;20099;-76
2022/06/21 01:19:30;;;;;;;16.45;8.38;;;;;;;11.49;84.14;101601.59;4906336;29;20064;-76
2022/06/21 01:22:04;;;;;;;11.82;7.93;;;;;;;11.40;84.47;101612.75;4908232;29;20074;-76
2022/06/21 01:24:40;;;;;;;14.55;7.97;;;;;;;11.41;84.06;101609.16;4904987;29;20481;-75
2022/06/21 01:27:06;;;;;;;12.45;7.60;;;;;;;11.41;83.44;101612.66;4903950;29;20106;-76
2022/06/21 01:29:35;;;;;;;12.20;7.25;;;;;;;11.33;83.10;101603.56;4912011;29;20131;-76
2022/06/21 01:32:03;;;;;;;12.80;7.60;;;;;;;11.31;84.51;101608.94;4912961;29;20101;-77
2022/06/21 01:34:32;;;;;;;12.77;7.53;;;;;;;11.28;85.14;101599.44;4913357;29;20031;-76
2022/06/21 01:37:00;;;;;;;12.85;7.78;;;;;;;11.32;84.01;101607.13;4912856;29;20509;-76
2022/06/21 01:39:47;;;;;;;13.68;7.38;;;;;;;11.28;83.51;101607.34;4913021;29;20115;-76
2022/06/21 01:42:25;;;;;;;13.20;7.78;;;;;;;11.23;83.63;101604.16;4906489;29;20037;-76
2022/06/21 01:44:53;;;;;;;11.00;7.05;;;;;;;11.15;83.90;101592.41;4904116;29;20119;-76
2022/06/21 01:47:24;;;;;;;11.23;7.25;;;;;;;11.14;84.05;101602.09;4913370;29;20140;-76
2022/06/21 01:49:56;;;;;;;13.15;7.38;;;;;;;11.20;83.61;101606.13;4904834;29;20036;-76
2022/06/21 01:52:28;;;;;;;10.83;7.43;;;;;;;11.18;83.59;101606.22;4912727;29;20107;-76
2022/06/21 01:55:02;;;;;;;12.68;7.68;;;;;;;11.14;83.52;101596.81;4912083;29;20554;-76
2022/06/21 01:57:31;;;;;;;8.77;6.75;;;;;;;11.12;83.43;101603.13;4912168;29;20035;-77
2022/06/21 01:59:58;;;;;;;10.68;7.40;;;;;;;11.04;83.82;101589.63;4906392;29;20033;-77
2022/06/21 02:02:29;;;;;;;11.13;7.05;;;;;;;11.03;83.75;101594.03;4903306;29;20402;-76
2022/06/21 02:05:12;;;;;;;14.82;7.13;;;;;;;10.98;83.74;101598.75;4910360;29;20044;-77
2022/06/21 02:07:45;;;;;;;13.32;7.63;;;;;;;10.94;83.80;101597.25;4903397;29;20079;-77
2022/06/21 02:10:10;;;;;;;12.52;7.20;;;;;;;10.93;84.19;101590.31;4912863;29;20043;-77
2022/06/21 02:12:41;;;;;;;15.73;8.27;;;;;;;10.86;84.40;101586.38;4910643;29;20107;-77
2022/06/21 02:15:11;;;;;;;14.93;8.45;;;;;;;10.89;84.20;101592.28;4904722;29;20052;-77
2022/06/21 02:17:42;;;;;;;12.85;7.55;;;;;;;10.81;84.00;101591.09;4888005;29;20571;-77
2022/06/21 02:20:23;;;;;;;11.60;8.02;;;;;;;10.83;84.79;101591.84;4904828;29;20119;-76
2022/06/21 02:22:48;;;;;;;13.60;7.85;;;;;;;10.76;84.47;101582.63;4894521;29;20150;-77
2022/06/21 02:25:24;;;;;;;13.45;7.65;;;;;;;10.75;84.47;101583.56;4912460;29;20140;-77
2022/06/21 02:28:00;;;;;;;12.50;7.65;;;;;;;10.65;84.32;101573.59;4912015;29;20028;-77
2022/06/21 02:30:26;;;;;;;12.68;7.78;;;;;;;10.61;85.00;101568.63;4907769;29;20399;-77
2022/06/21 02:32:57;;;;;;;13.95;8.05;;;;;;;10.65;85.14;101562.25;4901963;29;20039;-77
2022/06/21 02:35:35;;;;;;;12.20;7.47;;;;;;;10.69;84.57;101555.84;4891650;29;20039;-77
2022/06/21 02:38:04;;;;;;;13.70;7.97;;;;;;;10.57;84.74;101560.09;4904415;29;20043;-76
2022/06/21 02:40:37;;;;;;;11.55;7.95;;;;;;;10.59;84.97;101558.22;4911868;29;20028;-77
2022/06/21 02:43:09;;;;;;;12.23;7.30;;;;;;;10.56;84.99;101566.28;4912381;29;20035;-77
2022/06/21 02:45:46;;;;;;;13.60;7.57;;;;;;;10.55;85.55;101569.03;4911303;29;20024;-77
2022/06/21 02:48:18;;;;;;;12.80;8.40;;;;;;;10.54;86.07;101565.56;4904513;29;20484;-76
2022/06/21 02:50:51;;;;;;;14.07;8.32;;;;;;;10.46;86.19;101565.19;4911718;29;20435;-76
2022/06/21 02:53:25;;;;;;;12.50;8.60;;;;;;;10.45;86.90;101571.38;4894846;29;20479;-76
2022/06/21 02:55:58;;;;;;;13.63;8.55;;;;;;;10.42;86.41;101566.31;4901652;29;20482;-76
2022/06/21 02:58:40;;;;;;;12.90;8.48;;;;;;;10.52;85.31;101577.97;4912545;29;20032;-76
2022/06/21 03:01:15;;;;;;;14.77;7.97;;;;;;;10.42;85.91;101571.59;4911377;29;20043;-76
2022/06/21 03:03:41;;;;;;;13.90;8.25;;;;;;;10.42;85.49;101570.72;4906074;29;20291;-76
2022/06/21 03:06:11;;;;;;;12.38;7.90;;;;;;;10.36;85.73;101574.56;4903396;29;20029;-76
2022/06/21 03:08:49;;;;;;;12.68;8.30;;;;;;;10.41;85.95;101574.31;4909551;29;20031;-76
2022/06/21 03:11:15;;;;;;;12.88;8.35;;;;;;;10.32;86.59;101567.81;4904857;29;20071;-76
2022/06/21 03:13:41;;;;;;;16.65;9.35;;;;;;;10.35;87.10;101564.97;4905725;29;20052;-76
2022/06/21 03:16:12;;;;;;;14.18;9.43;;;;;;;10.35;87.63;101573.72;4892552;29;20056;-76
2022/06/21 03:18:44;;;;;;;11.45;8.80;;;;;;;10.28;87.33;101576.81;4911501;29;20119;-76
2022/06/21 03:21:12;;;;;;;13.95;8.93;;;;;;;10.27;86.58;101569.88;4911441;29;20039;-76
2022/06/21 03:23:40;;;;;;;9.80;8.25;;;;;;;10.25;85.81;101577.00;4891082;29;20280;-76
2022/06/21 03:26:06;;;;;;;13.63;8.60;;;;;;;10.21;86.71;101575.50;4892094;29;20043;-76
2022/06/21 03:28:37;;;;;;;12.63;9.27;;;;;;;10.19;86.97;101579.97;4909743;29;20032;-76
2022/06/21 03:31:19;;;;;;;12.73;8.60;;;;;;;10.28;86.64;101576.81;4904191;29;20037;-76
2022/06/21 03:33:48;;;;;;;14.88;9.25;;;;;;;10.19;87.14;101569.47;4896188;29;20025;-76
2022/06/21 03:36:21;;;;;;;15.65;9.77;;;;;;;10.26;88.17;101560.28;4910635;29;20107;-76
2022/06/21 03:38:49;;;;;;;11.82;9.85;;;;;;;10.20;88.46;101555.38;4904232;29;20028;-76
2022/06/21 03:44:09;;;;;;;14.13;9.75;;;;;;;10.14;88.70;101561.00;4910123;29;20063;-76
2022/06/21 03:47:19;;;;;;;17.20;10.55;;;;;;;10.21;87.96;101550.06;4894246;29;20031;-75
2022/06/21 03:50:00;;;;;;;15.32;10.90;;;;;;;10.10;89.34;101539.31;4862693;29;20408;-76
2022/06/21 03:52:41;;;;;;;15.07;11.48;;;;;;;10.11;90.27;101545.44;4904170;29;20036;-76
2022/06/21 03:55:40;;;;;;;16.17;11.85;;;;;;;10.20;89.39;101545.72;4906134;29;20469;-76
2022/06/21 03:58:08;;;;;;;16.25;11.07;;;;;;;10.21;90.01;101538.69;4883171;29;20044;-76
2022/06/21 04:01:20;;;;;;;13.43;10.80;;;;;;;10.38;89.23;101556.06;4899880;29;20047;-75
2022/06/21 04:04:05;;;;;;;15.40;11.00;;;;;;;10.99;88.56;101563.59;4871200;29;20047;-76
2022/06/21 04:06:45;;;;;;;15.93;10.43;;;;;;;12.81;82.74;101552.06;4907218;29;20020;-76
2022/06/21 04:09:44;;;;;;;20.08;9.70;;;;;;;14.01;78.98;101536.94;4912625;29;20032;-76
2022/06/21 04:12:24;;;;;;;13.75;8.38;;;;;;;14.96;72.35;101549.63;4890259;29;20032;-76
2022/06/21 04:15:06;;;;;;;12.00;7.55;;;;;;;16.22;67.86;101534.66;4908120;29;20402;-76
2022/06/21 04:18:02;;;;;;;11.18;7.05;;;;;;;16.46;68.49;101531.69;4900634;29;20032;-76
2022/06/21 04:20:27;;;;;;;11.57;6.70;;;;;;;16.08;66.49;101535.00;4900324;29;20040;-76
2022/06/21 04:23:16;;;;;;;12.75;7.03;;;;;;;15.78;69.13;101530.50;4890608;29;20559;-76
2022/06/21 04:25:56;;;;;;;12.05;7.07;;;;;;;15.78;67.62;101536.66;4890194;29;20052;-75
2022/06/21 04:28:26;;;;;;;13.10;7.78;;;;;;;14.76;69.66;101542.44;4907842;29;20020;-75
2022/06/21 04:30:58;;;;;;;15.82;9.10;;;;;;;13.96;72.09;101528.47;4911583;29;20457;-75
2022/06/21 04:33:45;;;;;;;13.95;8.50;;;;;;;13.62;74.49;101523.16;4904417;29;20458;-78
2022/06/21 04:36:18;;;;;;;15.25;9.10;;;;;;;13.07;76.06;101515.81;4902033;29;20040;-78
2022/06/21 04:38:52;;;;;;;17.00;8.75;;;;;;;13.06;77.44;101529.97;4904301;29;20137;-78
2022/06/21 04:41:23;;;;;;;16.45;8.90;;;;;;;12.78;78.33;101525.84;4911592;29;20040;-78
2022/06/21 04:43:57;;;;;;;15.02;8.80;;;;;;;12.58;78.77;101524.66;4909518;29;20686;-78
2022/06/21 04:46:47;;;;;;;15.18;8.95;;;;;;;12.48;79.45;101516.56;4905580;29;20020;-78
2022/06/21 04:49:34;;;;;;;14.85;8.95;;;;;;;12.40;80.07;101510.09;4913848;29;20028;-77
2022/06/21 04:52:06;;;;;;;13.70;8.80;;;;;;;12.37;80.41;101519.09;4907254;29;20031;-77
2022/06/21 04:54:34;;;;;;;16.17;9.07;;;;;;;12.37;81.19;101521.72;4910359;29;20032;-77
2022/06/21 04:57:05;;;;;;;14.57;9.27;;;;;;;12.32;80.94;101518.56;4880425;29;20510;-77
2022/06/21 04:59:34;;;;;;;17.23;9.15;;;;;;;12.20;81.10;101516.81;4902895;29;20043;-77
2022/06/21 05:02:01;;;;;;;15.00;10.15;;;;;;;12.21;81.90;101515.84;4887161;29;20031;-77
2022/06/21 05:04:33;;;;;;;14.63;9.52;;;;;;;12.33;82.08;101522.91;4903010;29;20043;-78
2022/06/21 05:07:04;;;;;;;16.55;9.05;;;;;;;12.25;81.25;101527.88;4896538;29;20583;-78
2022/06/21 05:09:32;;;;;;;14.00;9.15;;;;;;;12.27;81.69;101518.06;4896595;29;20035;-77
2022/06/21 05:12:02;;;;;;;15.32;8.75;;;;;;;12.28;81.74;101517.09;4913991;29;20024;-78
2022/06/21 05:14:31;;;;;;;15.88;8.35;;;;;;;12.31;81.10;101516.88;4909221;29;20020;-79
2022/06/21 05:17:11;;;;;;;18.08;8.10;;;;;;;12.39;80.82;101524.25;4912289;29;20060;-75
2022/06/21 05:19:42;;;;;;;15.40;8.40;;;;;;;12.45;81.31;101508.84;4894786;29;20127;-77
2022/06/21 05:22:30;;;;;;;14.10;8.15;;;;;;;12.49;80.78;101504.19;4912776;29;20418;-77
2022/06/21 05:25:00;;;;;;;13.48;7.70;;;;;;;12.53;80.25;101498.59;4918020;29;20126;-78
2022/06/21 05:27:40;;;;;;;15.25;7.53;;;;;;;12.61;79.33;101500.66;4913278;29;20020;-77
2022/06/21 05:30:22;;;;;;;16.52;7.72;;;;;;;12.70;79.84;101513.19;4901709;29;20032;-77
2022/06/21 05:32:56;;;;;;;14.10;6.53;;;;;;;12.78;79.14;101507.34;4917578;29;20546;-77
2022/06/21 05:35:26;;;;;;;13.90;6.13;;;;;;;12.84;78.40;101525.44;4914921;29;20040;-78
2022/06/21 05:38:00;;;;;;;12.23;6.05;;;;;;;12.94;78.30;101529.06;4915729;29;20080;-77
2022/06/21 05:40:29;;;;;;;16.65;5.88;;;;;;;13.09;77.37;101529.75;4913005;29;20028;-77
2022/06/21 05:42:54;;;;;;;16.27;5.50;;;;;;;13.22;77.28;101524.44;4914327;29;20427;-77
2022/06/21 05:45:28;;;;;;;12.15;4.95;;;;;;;13.28;76.54;101519.53;4902190;29;20063;-75
2022/06/21 05:47:59;;;;;;;9.15;4.68;;;;;;;13.32;75.79;101509.59;4895558;29;20481;-76
2022/06/21 05:50:29;;;;;;;11.20;4.57;;;;;;;13.37;75.44;101529.44;4901786;29;20394;-76
2022/06/21 05:53:06;;;;;;;12.23;5.15;;;;;;;13.41;75.17;101535.31;4912053;29;20331;-76
2022/06/21 05:55:36;;;;;;;10.60;4.72;;;;;;;13.45;74.90;101544.72;4900449;29;20040;-76
2022/06/21 05:58:27;;;;;;;10.07;4.88;;;;;;;13.50;74.76;101539.91;4896761;29;20032;-76
2022/06/21 06:01:15;;;;;;;11.85;5.07;;;;;;;13.59;74.51;101544.50;4902768;29;20032;-76
2022/06/21 06:03:47;;;;;;;10.40;4.70;;;;;;;13.65;73.95;101548.50;4894091;29;20059;-77
2022/06/21 06:06:20;;;;;;;10.55;4.97;;;;;;;13.67;73.83;101550.09;4902592;29;20047;-77
2022/06/21 06:08:57;;;;;;;9.23;4.97;;;;;;;13.75;74.76;101544.19;4882512;29;20024;-77
2022/06/21 06:11:57;;;;;;;11.85;5.28;;;;;;;13.79;73.55;101559.72;4877209;29;20111;-76
2022/06/21 06:14:19;;;;;;;34.75;8.57;;;;;;;13.93;73.72;101557.81;4902861;29;20037;-77
2022/06/21 06:16:49;;;;;;;12.48;4.60;;;;;;;14.02;72.88;101551.84;4905478;29;20067;-76
2022/06/21 06:19:32;;;;;;;16.77;4.38;;;;;;;14.09;72.93;101561.81;4905463;29;20095;-77
2022/06/21 06:22:19;;;;;;;18.98;5.70;;;;;;;14.14;72.77;101561.47;4904858;29;20051;-75
2022/06/21 06:25:20;;;;;;;16.25;4.90;;;;;;;14.25;72.68;101563.28;4897452;29;20111;-75
2022/06/21 06:27:49;;;;;;;10.43;4.13;;;;;;;14.34;72.49;101573.97;4894951;29;20057;-77
2022/06/21 06:30:24;;;;;;;8.85;3.80;;;;;;;14.37;73.56;101572.91;4902124;29;20032;-76
2022/06/21 06:33:30;;;;;;;8.95;3.40;;;;;;;14.49;70.57;101566.69;4904941;29;20064;-76
2022/06/21 06:36:00;;;;;;;9.40;3.42;;;;;;;14.56;70.96;101562.59;4908520;29;20032;-77
2022/06/21 06:38:38;;;;;;;11.02;3.50;;;;;;;14.67;70.13;101567.88;4910865;29;20024;-80
2022/06/21 06:41:09;;;;;;;11.98;3.42;;;;;;;14.74;68.82;101565.56;4897939;29;20491;-78
2022/06/21 06:43:47;;;;;;;8.75;3.10;;;;;;;14.83;69.98;101558.72;4910753;29;20019;-77
2022/06/21 06:46:27;;;;;;;13.40;3.60;;;;;;;14.92;69.74;101574.72;4910121;29;20035;-77
2022/06/21 06:49:04;;;;;;;14.30;3.60;;;;;;;15.05;68.49;101574.53;4911687;29;20050;-77
2022/06/21 06:51:43;;;;;;;17.25;4.20;;;;;;;15.12;68.58;101566.94;4904647;29;20044;-77
2022/06/21 06:54:26;;;;;;;28.10;5.55;;;;;;;15.21;67.09;101575.00;4913622;29;20433;-78
2022/06/21 06:57:01;;;;;;;;;;;;;;;15.31;68.16;101577.72;4913025;29;20102;-78
2022/06/21 06:59:26;;;;;;;11.77;3.72;;;;;;;15.37;66.79;101569.28;4915210;29;19915;-78
2022/06/21 07:02:02;;;;;;;8.98;3.35;;;;;;;15.51;66.77;101573.41;4911135;29;20034;-77
2022/06/21 07:04:34;;;;;;;9.45;3.60;;;;;;;15.70;66.00;101570.13;4909674;29;20732;-79
2022/06/21 07:07:06;;;;;;;9.07;3.30;;;;;;;15.85;65.51;101558.19;4915981;29;20031;-79
2022/06/21 07:09:48;;;;;;;9.77;3.60;;;;;;;16.11;65.30;101567.44;4916144;29;20088;-77
2022/06/21 07:12:21;;;;;;;8.13;3.80;;;;;;;16.28;63.82;101561.50;4899019;29;20468;-77
2022/06/21 07:14:49;;;;;;;10.55;3.90;;;;;;;16.56;62.76;101572.41;4913327;29;20399;-76
2022/06/21 07:17:31;;;;;;;10.07;3.83;;;;;;;16.77;62.01;101572.34;4912274;29;20042;-78
2022/06/21 07:19:57;;;;;;;10.90;4.10;;;;;;;17.02;60.97;101563.88;4912832;29;20055;-77
2022/06/21 07:22:27;;;;;;;9.18;2.92;;;;;;;17.18;60.56;101556.19;4913101;29;20111;-77
2022/06/21 07:25:02;;;;;;;14.63;3.90;;;;;;;17.33;59.81;101548.66;4889312;29;20025;-78
2022/06/21 07:27:31;;;;;;;12.00;3.78;;;;;;;17.59;58.66;101537.41;4910054;29;20024;-77
2022/06/21 07:30:05;;;;;;;14.52;3.70;;;;;;;17.75;59.12;101543.06;4915755;29;20031;-78
2022/06/21 07:32:40;;;;;;;11.55;3.78;;;;;;;18.00;59.50;101553.06;4905575;29;20024;-77
2022/06/21 07:35:41;;;;;;;11.75;3.67;;;;;;;18.17;59.22;101556.81;4907444;29;20396;-78
2022/06/21 07:38:22;;;;;;;10.45;3.53;;;;;;;18.25;56.68;101556.91;4910244;29;20043;-78
2022/06/21 07:40:58;;;;;;;10.77;3.58;;;;;;;18.32;57.52;101559.84;4894316;29;20028;-77
2022/06/21 07:43:46;;;;;;;8.52;3.97;;;;;;;18.33;56.44;101558.84;4911556;29;20103;-77
2022/06/21 07:46:17;;;;;;;8.10;3.42;;;;;;;18.50;55.03;101558.09;4895284;29;20530;-78
2022/06/21 07:48:56;;;;;;;9.57;3.50;;;;;;;18.60;56.07;101556.22;4908809;29;20482;-78
2022/06/21 07:51:42;;;;;;;7.53;3.50;;;;;;;18.70;55.22;101551.69;4915845;29;20410;-77
2022/06/21 07:54:16;;;;;;;8.02;3.17;;;;;;;18.65;53.65;101542.47;4911962;29;20032;-77
2022/06/21 07:57:17;;;;;;;8.05;3.22;;;;;;;18.77;54.90;101542.09;4899616;29;20031;-77
2022/06/21 07:59:54;;;;;;;8.13;3.80;;;;;;;19.09;53.11;101530.94;4895200;29;20522;-77
2022/06/21 08:08:35;;;;;;;9.40;3.40;;;;;;;19.20;52.67;101535.22;4905677;29;20035;-79
2022/06/21 08:11:07;;;;;;;7.85;3.50;;;;;;;18.86;52.91;101534.22;4889981;29;20024;-77
2022/06/21 08:13:32;;;;;;;11.25;3.88;;;;;;;18.67;54.10;101525.34;4913375;29;20031;-77
2022/06/21 08:16:10;;;;;;;12.43;4.03;;;;;;;18.70;55.03;101534.84;4908025;29;20043;-77
2022/06/21 08:18:45;;;;;;;6.45;3.08;;;;;;;18.96;54.94;101540.31;4911893;29;20233;-77
2022/06/21 08:21:17;;;;;;;10.07;3.10;;;;;;;19.12;52.80;101528.97;4898198;29;20036;-77
2022/06/21 08:24:00;;;;;;;;;;;;;;;19.22;54.83;101525.25;4912936;29;20020;-77
2022/06/21 08:26:41;;;;;;;9.57;3.60;;;;;;;19.05;53.36;101507.41;4912030;29;20052;-78
2022/06/21 08:29:13;;;;;;;9.98;3.03;;;;;;;19.09;51.58;101508.75;4914646;29;20379;-76
2022/06/21 08:31:42;;;;;;;14.18;3.20;;;;;;;18.93;51.29;101497.94;4911301;29;20027;-76
2022/06/21 08:34:24;;;;;;;8.45;2.83;;;;;;;18.97;52.91;101492.16;4908047;29;20028;-75
2022/06/21 08:36:56;;;;;;;5.82;3.03;;;;;;;18.70;51.14;101506.38;4900563;29;20032;-75
2022/06/21 08:39:49;;;;;;;7.28;3.10;;;;;;;18.86;53.02;101508.38;4891397;29;20500;-75
2022/06/21 08:42:18;;;;;;;6.40;3.17;;;;;;;18.88;52.40;101500.25;4906468;29;20111;-75
2022/06/21 08:45:40;;;;;;;8.23;3.35;;;;;;;19.02;52.65;101481.03;4908889;29;20025;-76
2022/06/21 08:48:16;;;;;;;7.72;3.30;;;;;;;19.22;53.71;101471.88;4895927;29;20443;-76
2022/06/21 08:51:15;;;;;;;8.75;3.20;;;;;;;19.04;52.51;101463.88;4895238;29;20032;-75
2022/06/21 08:54:20;;;;;;;9.75;3.25;;;;;;;18.94;53.61;101455.13;4894915;29;20125;-76
2022/06/21 08:57:23;;;;;;;8.50;3.78;;;;;;;18.71;53.08;101456.56;4895557;29;20043;-80
2022/06/21 09:00:08;;;;;;;10.30;3.63;;;;;;;18.42;52.83;101473.56;4895468;29;20481;-80
2022/06/21 09:03:17;;;;;;;10.43;4.22;;;;;;;18.30;54.08;101463.22;4899200;29;20073;-81
2022/06/21 09:06:22;;;;;;;11.25;3.50;;;;;;;18.32;53.97;101454.09;4909682;29;20035;-80
2022/06/21 09:09:21;;;;;;;9.70;3.60;;;;;;;18.46;53.73;101453.63;4914990;29;20044;-75
2022/06/21 09:12:18;;;;;;;7.93;3.97;;;;;;;18.70;53.89;101454.88;4914876;29;20031;-75
2022/06/21 09:14:53;;;;;;;9.95;4.38;;;;;;;18.92;53.11;101442.94;4913977;29;20088;-75
2022/06/21 09:17:31;;;;;;;8.82;4.13;;;;;;;18.91;52.32;101446.59;4913872;29;20062;-76
2022/06/21 09:20:02;;;;;;;6.75;3.47;;;;;;;19.25;51.93;101434.22;4894191;29;20076;-76
2022/06/21 09:22:58;;;;;;;7.80;3.63;;;;;;;19.68;52.07;101427.19;4912974;29;20079;-75
2022/06/21 09:25:55;;;;;;;7.72;3.30;;;;;;;19.80;50.04;101423.25;4914404;29;20392;-75
2022/06/21 09:28:32;;;;;;;8.43;3.78;;;;;;;20.01;49.90;101420.16;4913070;29;20537;-76
2022/06/21 09:31:39;;;;;;;7.78;3.50;;;;;;;20.02;49.38;101416.50;4897688;29;20487;-75
2022/06/21 09:34:23;;;;;;;11.40;3.60;;;;;;;20.10;50.02;101402.34;4900868;29;20633;-75
2022/06/21 09:37:18;;;;;;;8.75;4.07;;;;;;;20.39;51.11;101407.25;4912770;29;20584;-76
2022/06/21 09:40:02;;;;;;;8.07;3.63;;;;;;;20.37;49.83;101403.91;4909064;29;20096;-78
2022/06/21 09:42:39;;;;;;;7.63;4.30;;;;;;;20.25;48.56;101419.41;4904597;29;20032;-74
2022/06/21 09:45:25;;;;;;;8.00;3.67;;;;;;;20.28;48.25;101427.94;4906240;29;20107;-75
2022/06/21 09:48:03;;;;;;;6.20;3.50;;;;;;;20.24;49.32;101426.59;4898915;29;20032;-75
2022/06/21 09:50:38;;;;;;;8.73;3.40;;;;;;;20.21;47.42;101426.09;4903542;29;20099;-75
2022/06/21 09:53:07;;;;;;;6.28;3.25;;;;;;;20.28;48.41;101411.91;4911730;29;20028;-75
2022/06/21 09:55:45;;;;;;;7.63;3.65;;;;;;;20.10;48.42;101408.53;4906927;29;20075;-75
2022/06/21 09:58:31;;;;;;;9.10;3.50;;;;;;;20.08;49.20;101404.34;4891977;29;20056;-78
2022/06/21 10:01:03;;;;;;;8.02;3.20;;;;;;;19.86;47.43;101409.25;4908288;29;20860;-75
2022/06/21 10:03:53;;;;;;;9.90;3.90;;;;;;;19.94;49.06;101414.63;4900097;29;20035;-75
2022/06/21 10:06:42;;;;;;;8.32;3.67;;;;;;;19.93;48.70;101418.28;4899380;29;20036;-75
2022/06/21 10:09:21;;;;;;;8.55;3.45;;;;;;;19.98;48.07;101421.31;4901867;29;20033;-76
2022/06/21 10:12:19;;;;;;;7.55;4.10;;;;;;;20.08;49.41;101420.38;4901332;29;20024;-76
2022/06/21 10:15:11;;;;;;;10.18;4.28;;;;;;;19.96;48.50;101417.97;4903198;29;20047;-76
2022/06/21 10:17:59;;;;;;;6.53;4.05;;;;;;;19.91;49.83;101419.44;4902333;29;20040;-76
2022/06/21 10:20:36;;;;;;;8.43;3.83;;;;;;;19.95;49.29;101416.28;4888511;29;20399;-76
2022/06/21 10:23:41;;;;;;;9.60;4.00;;;;;;;19.90;49.23;101428.47;4907097;29;20040;-74
2022/06/21 10:26:39;;;;;;;9.05;3.50;;;;;;;20.02;49.06;101428.03;4902940;29;20036;-75
2022/06/21 10:29:24;;;;;;;8.88;3.58;;;;;;;20.03;48.92;101424.38;4903862;29;20149;-75
2022/06/21 10:32:20;;;;;;;11.35;4.13;;;;;;;20.03;48.71;101413.69;4898772;29;20844;-75
2022/06/21 10:35:06;;;;;;;8.23;4.50;;;;;;;19.95;49.57;101413.63;4902616;29;20103;-76
2022/06/21 10:37:54;;;;;;;14.95;4.57;;;;;;;20.06;49.70;101425.03;4901057;29;20036;-75
2022/06/21 10:40:41;;;;;;;11.32;4.53;;;;;;;20.11;49.46;101428.06;4907081;29;20032;-75
2022/06/21 10:43:21;;;;;;;10.75;4.35;;;;;;;20.16;49.42;101431.06;4908470;29;20031;-75
2022/06/21 10:46:34;;;;;;;9.07;4.20;;;;;;;20.18;50.01;101421.91;4904537;29;20063;-74
2022/06/21 10:49:25;;;;;;;7.88;4.05;;;;;;;20.20;49.99;101425.25;4870279;29;20508;-74
2022/06/21 10:51:59;;;;;;;9.20;4.32;;;;;;;20.10;48.98;101418.38;4905015;29;20146;-76
2022/06/21 10:55:02;;;;;;;7.50;4.30;;;;;;;20.11;49.01;101420.03;4904211;29;20039;-74
2022/06/21 10:57:52;;;;;;;8.38;4.20;;;;;;;20.06;49.63;101422.38;4899957;29;20032;-75
2022/06/21 11:01:21;;;;;;;10.75;4.13;;;;;;;20.03;48.83;101429.72;4900447;29;20029;-75
2022/06/21 11:03:52;;;;;;;9.90;4.45;;;;;;;20.11;49.56;101436.06;4845927;29;20069;-75
2022/06/21 11:06:37;;;;;;;10.60;4.05;;;;;;;20.16;49.55;101431.06;4831065;29;20113;-74
2022/06/21 11:09:17;;;;;;;8.98;4.28;;;;;;;20.22;48.93;101443.78;4901189;29;20055;-74
2022/06/21 11:12:52;;;;;;;8.75;4.40;;;;;;;20.17;49.01;101435.44;4915627;29;20269;-76
2022/06/21 11:15:05;;;;;;;8.30;4.50;;;;;;;20.10;49.68;101423.72;4909809;29;20507;-75
2022/06/21 11:17:55;;;;;;;11.75;4.45;;;;;;;19.97;49.28;101424.97;4915932;29;20040;-75
2022/06/21 11:20:40;;;;;;;9.20;4.57;;;;;;;20.10;48.84;101437.06;4902820;29;20115;-76
2022/06/21 11:23:05;;;;;;;7.90;5.05;;;;;;;20.03;48.80;101421.69;4914048;29;21753;-74
2022/06/21 11:26:07;;;;;;;12.25;5.15;;;;;;;20.03;49.58;101424.38;4912343;29;20083;-74
2022/06/21 11:29:06;;;;;;;9.60;4.68;;;;;;;20.09;49.75;101432.72;4909766;29;20035;-75
2022/06/21 11:31:46;;;;;;;7.70;4.60;;;;;;;19.93;49.14;101418.28;4912311;29;20036;-77
2022/06/21 11:34:38;;;;;;;8.07;4.93;;;;;;;19.92;49.65;101415.78;4890628;29;20762;-74
2022/06/21 11:37:33;;;;;;;9.23;4.57;;;;;;;20.11;48.74;101420.88;4908292;29;20020;-74
2022/06/21 11:40:23;;;;;;;12.65;4.95;;;;;;;20.22;49.34;101412.56;4900941;29;20042;-75
2022/06/21 11:42:53;;;;;;;6.80;4.53;;;;;;;20.19;48.00;101407.53;4899442;29;20920;-76
2022/06/21 11:45:34;;;;;;;10.18;4.50;;;;;;;20.26;47.30;101407.72;4900200;29;20474;-75
2022/06/21 11:48:06;;;;;;;8.80;4.32;;;;;;;20.40;48.51;101414.28;4913907;29;20063;-75
2022/06/21 11:51:02;;;;;;;8.88;4.07;;;;;;;20.55;47.45;101413.50;4907721;29;20035;-75
2022/06/21 11:53:53;;;;;;;7.80;3.97;;;;;;;20.59;48.37;101398.81;4909086;29;20434;-75
2022/06/21 11:56:51;;;;;;;8.93;4.43;;;;;;;20.60;47.99;101403.16;4912000;29;20032;-75
2022/06/21 11:59:27;;;;;;;19.73;5.18;;;;;;;20.79;47.54;101403.81;4914017;29;20079;-75
2022/06/21 12:02:26;;;;;;;7.97;4.40;;;;;;;20.86;46.70;101405.69;4914906;29;20455;-75
2022/06/21 12:05:16;;;;;;;5.95;3.85;;;;;;;20.97;45.89;101401.84;4912718;29;20435;-74
2022/06/21 12:08:05;;;;;;;7.25;4.07;;;;;;;21.18;45.85;101398.63;4907638;29;20034;-75
2022/06/21 12:11:00;;;;;;;8.60;4.05;;;;;;;21.64;45.48;101391.75;4896666;29;20551;-76
2022/06/21 12:13:48;;;;;;;5.18;3.92;;;;;;;21.62;44.51;101396.44;4911800;29;20029;-75
2022/06/21 12:16:35;;;;;;;10.00;4.15;;;;;;;21.54;44.43;101388.41;4912528;29;20052;-76
2022/06/21 12:19:05;;;;;;;6.32;3.20;;;;;;;21.36;41.24;101379.75;4914891;29;20118;-75
2022/06/21 12:21:35;;;;;;;7.30;3.67;;;;;;;21.38;43.51;101383.94;4913648;29;20509;-75